sensor_id;sensor_type;location;lat;lon;timestamp;temperature;humidity
33271;DHT22;53180;51.344;6.152;2022-09-13T00:01:06;16.60;87.10
33271;DHT22;53180;51.344;6.152;2022-09-13T00:03:36;16.60;87.10
33271;DHT22;53180;51.344;6.152;2022-09-13T00:06:09;16.60;87.20
33271;DHT22;53180;51.344;6.152;2022-09-13T00:08:40;16.70;87.30
33271;DHT22;53180;51.344;6.152;2022-09-13T00:11:14;16.70;87.20
33271;DHT22;53180;51.344;6.152;2022-09-13T00:13:44;16.70;87.00
33271;DHT22;53180;51.344;6.152;2022-09-13T00:16:14;16.70;86.80
33271;DHT22;53180;51.344;6.152;2022-09-13T00:18:45;16.80;86.60
33271;DHT22;53180;51.344;6.152;2022-09-13T00:21:16;16.80;86.60
33271;DHT22;53180;51.344;6.152;2022-09-13T00:23:47;16.80;85.90
33271;DHT22;53180;51.344;6.152;2022-09-13T00:26:18;16.90;85.20
33271;DHT22;53180;51.344;6.152;2022-09-13T00:28:50;17.00;84.80
33271;DHT22;53180;51.344;6.152;2022-09-13T00:31:19;17.10;84.70
33271;DHT22;53180;51.344;6.152;2022-09-13T00:33:50;17.10;84.60
33271;DHT22;53180;51.344;6.152;2022-09-13T00:36:18;17.10;84.90
33271;DHT22;53180;51.344;6.152;2022-09-13T00:38:47;17.10;85.30
33271;DHT22;53180;51.344;6.152;2022-09-13T00:41:17;17.10;85.20
33271;DHT22;53180;51.344;6.152;2022-09-13T00:43:49;17.10;85.00
33271;DHT22;53180;51.344;6.152;2022-09-13T00:46:26;17.10;85.20
33271;DHT22;53180;51.344;6.152;2022-09-13T00:49:04;17.10;84.90
33271;DHT22;53180;51.344;6.152;2022-09-13T00:51:43;17.10;85.00
33271;DHT22;53180;51.344;6.152;2022-09-13T00:54:15;17.10;84.90
33271;DHT22;53180;51.344;6.152;2022-09-13T00:56:47;17.10;85.00
33271;DHT22;53180;51.344;6.152;2022-09-13T00:59:21;17.10;85.10
33271;DHT22;53180;51.344;6.152;2022-09-13T01:01:55;17.10;85.00
33271;DHT22;53180;51.344;6.152;2022-09-13T01:04:27;17.10;84.80
33271;DHT22;53180;51.344;6.152;2022-09-13T01:07:00;17.10;84.70
33271;DHT22;53180;51.344;6.152;2022-09-13T01:09:30;17.10;85.00
33271;DHT22;53180;51.344;6.152;2022-09-13T01:12:04;17.10;84.90
33271;DHT22;53180;51.344;6.152;2022-09-13T01:14:36;17.10;84.70
33271;DHT22;53180;51.344;6.152;2022-09-13T01:17:05;17.10;84.60
33271;DHT22;53180;51.344;6.152;2022-09-13T01:19:36;17.20;84.80
33271;DHT22;53180;51.344;6.152;2022-09-13T01:22:33;17.10;84.90
33271;DHT22;53180;51.344;6.152;2022-09-13T01:32:28;17.10;83.90
33271;DHT22;53180;51.344;6.152;2022-09-13T01:35:13;17.10;84.10
33271;DHT22;53180;51.344;6.152;2022-09-13T01:37:50;17.10;84.10
33271;DHT22;53180;51.344;6.152;2022-09-13T01:40:34;17.20;83.90
33271;DHT22;53180;51.344;6.152;2022-09-13T01:43:24;17.10;84.00
33271;DHT22;53180;51.344;6.152;2022-09-13T01:46:04;17.10;84.00
33271;DHT22;53180;51.344;6.152;2022-09-13T01:48:45;17.20;84.20
33271;DHT22;53180;51.344;6.152;2022-09-13T01:51:26;17.10;84.00
33271;DHT22;53180;51.344;6.152;2022-09-13T01:54:08;17.10;84.10
33271;DHT22;53180;51.344;6.152;2022-09-13T01:56:43;17.20;83.80
33271;DHT22;53180;51.344;6.152;2022-09-13T01:59:22;17.20;84.10
33271;DHT22;53180;51.344;6.152;2022-09-13T02:02:00;17.20;84.20
33271;DHT22;53180;51.344;6.152;2022-09-13T02:04:36;17.20;84.40
33271;DHT22;53180;51.344;6.152;2022-09-13T02:07:09;17.20;84.30
33271;DHT22;53180;51.344;6.152;2022-09-13T02:09:44;17.20;84.20
33271;DHT22;53180;51.344;6.152;2022-09-13T02:12:18;17.20;84.70
33271;DHT22;53180;51.344;6.152;2022-09-13T02:14:52;17.20;84.50
33271;DHT22;53180;51.344;6.152;2022-09-13T02:17:25;17.20;84.40
33271;DHT22;53180;51.344;6.152;2022-09-13T02:20:00;17.20;84.30
33271;DHT22;53180;51.344;6.152;2022-09-13T02:22:32;17.20;84.50
33271;DHT22;53180;51.344;6.152;2022-09-13T02:25:07;17.20;84.30
33271;DHT22;53180;51.344;6.152;2022-09-13T02:27:39;17.20;84.30
33271;DHT22;53180;51.344;6.152;2022-09-13T02:30:12;17.20;84.60
33271;DHT22;53180;51.344;6.152;2022-09-13T02:32:44;17.20;84.90
33271;DHT22;53180;51.344;6.152;2022-09-13T02:35:20;17.20;84.90
33271;DHT22;53180;51.344;6.152;2022-09-13T02:37:56;17.20;84.40
33271;DHT22;53180;51.344;6.152;2022-09-13T02:40:31;17.20;83.80
33271;DHT22;53180;51.344;6.152;2022-09-13T02:43:06;17.20;84.30
33271;DHT22;53180;51.344;6.152;2022-09-13T02:45:43;17.20;84.50
33271;DHT22;53180;51.344;6.152;2022-09-13T02:48:18;17.20;85.10
33271;DHT22;53180;51.344;6.152;2022-09-13T02:50:59;17.20;85.20
33271;DHT22;53180;51.344;6.152;2022-09-13T02:53:37;17.20;85.00
33271;DHT22;53180;51.344;6.152;2022-09-13T02:56:19;17.20;84.80
33271;DHT22;53180;51.344;6.152;2022-09-13T02:58:55;17.20;84.50
33271;DHT22;53180;51.344;6.152;2022-09-13T03:01:27;17.20;85.00
33271;DHT22;53180;51.344;6.152;2022-09-13T03:03:56;17.20;85.30
33271;DHT22;53180;51.344;6.152;2022-09-13T03:06:27;17.20;85.70
33271;DHT22;53180;51.344;6.152;2022-09-13T03:08:58;17.20;85.90
33271;DHT22;53180;51.344;6.152;2022-09-13T03:11:35;17.20;85.80
33271;DHT22;53180;51.344;6.152;2022-09-13T03:14:19;17.20;86.00
33271;DHT22;53180;51.344;6.152;2022-09-13T03:17:13;17.20;86.00
33271;DHT22;53180;51.344;6.152;2022-09-13T03:20:07;17.20;86.10
33271;DHT22;53180;51.344;6.152;2022-09-13T03:26:22;17.20;86.40
33271;DHT22;53180;51.344;6.152;2022-09-13T03:29:18;17.20;86.10
33271;DHT22;53180;51.344;6.152;2022-09-13T03:32:01;17.20;86.20
33271;DHT22;53180;51.344;6.152;2022-09-13T03:34:43;17.10;85.90
33271;DHT22;53180;51.344;6.152;2022-09-13T03:37:22;17.10;85.90
33271;DHT22;53180;51.344;6.152;2022-09-13T03:39:56;17.10;85.90
33271;DHT22;53180;51.344;6.152;2022-09-13T03:42:32;17.10;85.90
33271;DHT22;53180;51.344;6.152;2022-09-13T03:45:03;17.10;85.90
33271;DHT22;53180;51.344;6.152;2022-09-13T03:47:35;17.10;86.00
33271;DHT22;53180;51.344;6.152;2022-09-13T03:50:04;17.10;85.80
33271;DHT22;53180;51.344;6.152;2022-09-13T03:52:35;17.10;86.10
33271;DHT22;53180;51.344;6.152;2022-09-13T03:55:08;17.10;85.80
33271;DHT22;53180;51.344;6.152;2022-09-13T03:57:36;17.00;85.80
33271;DHT22;53180;51.344;6.152;2022-09-13T04:00:06;17.00;85.80
33271;DHT22;53180;51.344;6.152;2022-09-13T04:02:35;17.10;85.90
33271;DHT22;53180;51.344;6.152;2022-09-13T04:05:03;17.10;85.80
33271;DHT22;53180;51.344;6.152;2022-09-13T04:07:32;17.10;85.70
33271;DHT22;53180;51.344;6.152;2022-09-13T04:10:01;17.10;86.00
33271;DHT22;53180;51.344;6.152;2022-09-13T04:12:30;17.10;85.70
33271;DHT22;53180;51.344;6.152;2022-09-13T04:14:58;17.10;86.00
33271;DHT22;53180;51.344;6.152;2022-09-13T04:17:27;17.10;86.00
33271;DHT22;53180;51.344;6.152;2022-09-13T04:19:55;17.10;85.80
33271;DHT22;53180;51.344;6.152;2022-09-13T04:22:23;17.00;84.70
33271;DHT22;53180;51.344;6.152;2022-09-13T04:24:52;17.10;85.10
33271;DHT22;53180;51.344;6.152;2022-09-13T04:27:25;17.10;85.10
33271;DHT22;53180;51.344;6.152;2022-09-13T04:29:55;17.10;85.20
33271;DHT22;53180;51.344;6.152;2022-09-13T04:32:23;17.10;84.60
33271;DHT22;53180;51.344;6.152;2022-09-13T04:34:52;17.00;84.40
33271;DHT22;53180;51.344;6.152;2022-09-13T04:37:20;17.10;84.20
33271;DHT22;53180;51.344;6.152;2022-09-13T04:39:49;17.10;84.80
33271;DHT22;53180;51.344;6.152;2022-09-13T04:42:17;17.10;85.00
33271;DHT22;53180;51.344;6.152;2022-09-13T04:44:46;17.10;84.60
33271;DHT22;53180;51.344;6.152;2022-09-13T04:47:16;17.10;84.70
33271;DHT22;53180;51.344;6.152;2022-09-13T04:49:45;17.10;84.80
33271;DHT22;53180;51.344;6.152;2022-09-13T04:52:14;17.20;84.90
33271;DHT22;53180;51.344;6.152;2022-09-13T04:54:42;17.10;84.90
33271;DHT22;53180;51.344;6.152;2022-09-13T04:57:10;17.10;84.70
33271;DHT22;53180;51.344;6.152;2022-09-13T04:59:39;17.10;84.80
33271;DHT22;53180;51.344;6.152;2022-09-13T05:02:07;17.10;85.30
33271;DHT22;53180;51.344;6.152;2022-09-13T05:04:37;17.10;85.10
33271;DHT22;53180;51.344;6.152;2022-09-13T05:07:05;17.10;85.50
33271;DHT22;53180;51.344;6.152;2022-09-13T05:09:34;17.10;86.00
33271;DHT22;53180;51.344;6.152;2022-09-13T05:12:05;17.10;86.30
33271;DHT22;53180;51.344;6.152;2022-09-13T05:14:34;17.20;86.40
33271;DHT22;53180;51.344;6.152;2022-09-13T05:17:02;17.10;86.50
33271;DHT22;53180;51.344;6.152;2022-09-13T05:19:30;17.10;86.50
33271;DHT22;53180;51.344;6.152;2022-09-13T05:22:00;17.10;86.50
33271;DHT22;53180;51.344;6.152;2022-09-13T05:24:29;17.10;86.20
33271;DHT22;53180;51.344;6.152;2022-09-13T05:26:57;17.10;86.40
33271;DHT22;53180;51.344;6.152;2022-09-13T05:29:26;17.10;86.40
33271;DHT22;53180;51.344;6.152;2022-09-13T05:31:54;17.10;86.50
33271;DHT22;53180;51.344;6.152;2022-09-13T05:34:22;17.10;86.70
33271;DHT22;53180;51.344;6.152;2022-09-13T05:36:50;17.10;86.70
33271;DHT22;53180;51.344;6.152;2022-09-13T05:39:21;17.10;86.50
33271;DHT22;53180;51.344;6.152;2022-09-13T05:42:09;17.10;86.10
33271;DHT22;53180;51.344;6.152;2022-09-13T05:44:37;17.10;86.20
33271;DHT22;53180;51.344;6.152;2022-09-13T05:47:06;17.10;86.40
33271;DHT22;53180;51.344;6.152;2022-09-13T05:49:34;17.10;86.30
33271;DHT22;53180;51.344;6.152;2022-09-13T05:52:22;17.10;85.90
33271;DHT22;53180;51.344;6.152;2022-09-13T05:54:52;17.10;85.80
33271;DHT22;53180;51.344;6.152;2022-09-13T05:57:20;17.10;85.30
33271;DHT22;53180;51.344;6.152;2022-09-13T05:59:48;17.10;85.20
33271;DHT22;53180;51.344;6.152;2022-09-13T06:02:20;17.20;85.30
33271;DHT22;53180;51.344;6.152;2022-09-13T06:04:48;17.20;85.20
33271;DHT22;53180;51.344;6.152;2022-09-13T06:07:17;17.20;85.60
33271;DHT22;53180;51.344;6.152;2022-09-13T06:09:46;17.20;85.80
33271;DHT22;53180;51.344;6.152;2022-09-13T06:12:15;17.20;85.70
33271;DHT22;53180;51.344;6.152;2022-09-13T06:14:43;17.30;85.90
33271;DHT22;53180;51.344;6.152;2022-09-13T06:17:12;17.30;85.90
33271;DHT22;53180;51.344;6.152;2022-09-13T06:19:40;17.30;86.20
33271;DHT22;53180;51.344;6.152;2022-09-13T06:22:09;17.30;86.60
33271;DHT22;53180;51.344;6.152;2022-09-13T06:24:37;17.30;86.40
33271;DHT22;53180;51.344;6.152;2022-09-13T06:27:05;17.40;86.10
33271;DHT22;53180;51.344;6.152;2022-09-13T06:29:35;17.40;86.00
33271;DHT22;53180;51.344;6.152;2022-09-13T06:32:04;17.40;86.10
33271;DHT22;53180;51.344;6.152;2022-09-13T06:34:32;17.40;85.60
33271;DHT22;53180;51.344;6.152;2022-09-13T06:37:00;17.50;85.30
33271;DHT22;53180;51.344;6.152;2022-09-13T06:39:29;17.50;85.20
33271;DHT22;53180;51.344;6.152;2022-09-13T06:42:00;17.50;85.10
33271;DHT22;53180;51.344;6.152;2022-09-13T06:44:28;17.50;85.10
33271;DHT22;53180;51.344;6.152;2022-09-13T06:46:58;17.50;85.40
33271;DHT22;53180;51.344;6.152;2022-09-13T06:49:26;17.50;85.40
33271;DHT22;53180;51.344;6.152;2022-09-13T06:51:57;17.60;85.60
33271;DHT22;53180;51.344;6.152;2022-09-13T06:54:25;17.60;85.10
33271;DHT22;53180;51.344;6.152;2022-09-13T06:56:53;17.60;85.10
33271;DHT22;53180;51.344;6.152;2022-09-13T06:59:22;17.60;85.00
33271;DHT22;53180;51.344;6.152;2022-09-13T07:01:50;17.70;85.40
33271;DHT22;53180;51.344;6.152;2022-09-13T07:04:20;17.70;85.40
33271;DHT22;53180;51.344;6.152;2022-09-13T07:06:49;17.70;85.50
33271;DHT22;53180;51.344;6.152;2022-09-13T07:09:19;17.70;85.40
33271;DHT22;53180;51.344;6.152;2022-09-13T07:11:49;17.80;85.40
33271;DHT22;53180;51.344;6.152;2022-09-13T07:14:20;17.80;85.50
33271;DHT22;53180;51.344;6.152;2022-09-13T07:16:50;17.80;85.50
33271;DHT22;53180;51.344;6.152;2022-09-13T07:19:21;17.80;85.40
33271;DHT22;53180;51.344;6.152;2022-09-13T07:21:52;17.90;85.70
33271;DHT22;53180;51.344;6.152;2022-09-13T07:24:22;17.90;85.80
33271;DHT22;53180;51.344;6.152;2022-09-13T07:26:51;18.00;85.60
33271;DHT22;53180;51.344;6.152;2022-09-13T07:29:21;18.10;85.40
33271;DHT22;53180;51.344;6.152;2022-09-13T07:31:51;18.20;85.20
33271;DHT22;53180;51.344;6.152;2022-09-13T07:34:23;18.20;85.20
33271;DHT22;53180;51.344;6.152;2022-09-13T07:36:53;18.20;85.00
33271;DHT22;53180;51.344;6.152;2022-09-13T07:39:21;18.30;84.70
33271;DHT22;53180;51.344;6.152;2022-09-13T07:41:50;18.50;84.60
33271;DHT22;53180;51.344;6.152;2022-09-13T07:44:19;18.50;84.30
33271;DHT22;53180;51.344;6.152;2022-09-13T07:46:48;18.60;83.70
33271;DHT22;53180;51.344;6.152;2022-09-13T07:49:17;18.60;83.70
33271;DHT22;53180;51.344;6.152;2022-09-13T07:51:47;18.70;83.50
33271;DHT22;53180;51.344;6.152;2022-09-13T07:54:17;18.80;82.60
33271;DHT22;53180;51.344;6.152;2022-09-13T07:56:46;19.00;82.70
33271;DHT22;53180;51.344;6.152;2022-09-13T07:59:17;19.10;82.50
33271;DHT22;53180;51.344;6.152;2022-09-13T08:01:46;19.10;82.10
33271;DHT22;53180;51.344;6.152;2022-09-13T08:04:17;19.20;81.60
33271;DHT22;53180;51.344;6.152;2022-09-13T08:06:48;19.30;81.20
33271;DHT22;53180;51.344;6.152;2022-09-13T08:09:17;19.40;80.30
33271;DHT22;53180;51.344;6.152;2022-09-13T08:11:47;19.50;81.20
33271;DHT22;53180;51.344;6.152;2022-09-13T08:14:18;19.60;80.70
33271;DHT22;53180;51.344;6.152;2022-09-13T08:16:48;19.70;80.60
33271;DHT22;53180;51.344;6.152;2022-09-13T08:19:17;19.80;80.40
33271;DHT22;53180;51.344;6.152;2022-09-13T08:21:48;19.90;79.80
33271;DHT22;53180;51.344;6.152;2022-09-13T08:24:18;20.00;79.80
33271;DHT22;53180;51.344;6.152;2022-09-13T08:26:47;20.00;78.80
33271;DHT22;53180;51.344;6.152;2022-09-13T08:29:17;20.00;78.70
33271;DHT22;53180;51.344;6.152;2022-09-13T08:31:46;20.00;78.90
33271;DHT22;53180;51.344;6.152;2022-09-13T08:34:15;20.20;79.50
33271;DHT22;53180;51.344;6.152;2022-09-13T08:36:44;20.20;79.30
33271;DHT22;53180;51.344;6.152;2022-09-13T08:39:13;20.30;80.30
33271;DHT22;53180;51.344;6.152;2022-09-13T08:41:59;20.30;79.60
33271;DHT22;53180;51.344;6.152;2022-09-13T08:44:33;20.40;78.90
33271;DHT22;53180;51.344;6.152;2022-09-13T08:47:21;20.60;77.90
33271;DHT22;53180;51.344;6.152;2022-09-13T08:49:59;20.80;77.30
33271;DHT22;53180;51.344;6.152;2022-09-13T08:52:33;20.80;77.60
33271;DHT22;53180;51.344;6.152;2022-09-13T08:55:20;21.00;77.50
33271;DHT22;53180;51.344;6.152;2022-09-13T08:57:56;21.00;76.90
33271;DHT22;53180;51.344;6.152;2022-09-13T09:00:31;21.10;76.80
33271;DHT22;53180;51.344;6.152;2022-09-13T09:03:13;21.20;75.40
33271;DHT22;53180;51.344;6.152;2022-09-13T09:05:48;21.20;74.90
33271;DHT22;53180;51.344;6.152;2022-09-13T09:08:21;21.30;75.20
33271;DHT22;53180;51.344;6.152;2022-09-13T09:10:58;21.30;75.90
33271;DHT22;53180;51.344;6.152;2022-09-13T09:13:31;21.50;74.80
33271;DHT22;53180;51.344;6.152;2022-09-13T09:16:06;21.50;74.90
33271;DHT22;53180;51.344;6.152;2022-09-13T09:18:41;21.50;74.80
33271;DHT22;53180;51.344;6.152;2022-09-13T09:21:15;21.70;74.30
33271;DHT22;53180;51.344;6.152;2022-09-13T09:23:49;21.90;74.90
33271;DHT22;53180;51.344;6.152;2022-09-13T09:26:21;22.00;73.80
33271;DHT22;53180;51.344;6.152;2022-09-13T09:28:54;22.20;73.80
33271;DHT22;53180;51.344;6.152;2022-09-13T09:31:30;22.30;74.40
33271;DHT22;53180;51.344;6.152;2022-09-13T09:34:08;22.40;73.40
33271;DHT22;53180;51.344;6.152;2022-09-13T09:36:44;22.60;73.30
33271;DHT22;53180;51.344;6.152;2022-09-13T09:39:16;22.80;72.20
33271;DHT22;53180;51.344;6.152;2022-09-13T09:41:45;22.80;72.10
33271;DHT22;53180;51.344;6.152;2022-09-13T09:44:18;22.80;71.10
33271;DHT22;53180;51.344;6.152;2022-09-13T09:46:51;22.80;71.20
33271;DHT22;53180;51.344;6.152;2022-09-13T09:49:26;23.00;73.30
33271;DHT22;53180;51.344;6.152;2022-09-13T09:52:22;23.10;71.70
33271;DHT22;53180;51.344;6.152;2022-09-13T09:54:58;23.30;70.90
33271;DHT22;53180;51.344;6.152;2022-09-13T09:57:56;23.30;70.40
33271;DHT22;53180;51.344;6.152;2022-09-13T10:00:27;23.50;70.60
33271;DHT22;53180;51.344;6.152;2022-09-13T10:02:59;23.70;69.20
33271;DHT22;53180;51.344;6.152;2022-09-13T10:05:30;23.60;67.50
33271;DHT22;53180;51.344;6.152;2022-09-13T10:08:00;23.70;69.30
33271;DHT22;53180;51.344;6.152;2022-09-13T10:10:32;23.80;68.70
33271;DHT22;53180;51.344;6.152;2022-09-13T10:13:11;23.90;68.10
33271;DHT22;53180;51.344;6.152;2022-09-13T10:15:52;23.90;67.30
33271;DHT22;53180;51.344;6.152;2022-09-13T10:18:21;23.80;67.60
33271;DHT22;53180;51.344;6.152;2022-09-13T10:21:21;24.00;67.50
33271;DHT22;53180;51.344;6.152;2022-09-13T10:23:51;24.20;66.50
33271;DHT22;53180;51.344;6.152;2022-09-13T10:26:22;24.20;65.90
33271;DHT22;53180;51.344;6.152;2022-09-13T10:29:07;24.30;66.40
33271;DHT22;53180;51.344;6.152;2022-09-13T10:31:38;24.60;66.20
33271;DHT22;53180;51.344;6.152;2022-09-13T10:34:13;24.70;65.10
33271;DHT22;53180;51.344;6.152;2022-09-13T10:36:51;24.80;65.40
33271;DHT22;53180;51.344;6.152;2022-09-13T10:39:23;25.00;64.30
33271;DHT22;53180;51.344;6.152;2022-09-13T10:41:54;25.10;64.80
33271;DHT22;53180;51.344;6.152;2022-09-13T10:44:29;25.00;63.60
33271;DHT22;53180;51.344;6.152;2022-09-13T10:47:03;24.90;64.80
33271;DHT22;53180;51.344;6.152;2022-09-13T10:49:39;24.90;64.40
33271;DHT22;53180;51.344;6.152;2022-09-13T10:52:29;24.90;64.70
33271;DHT22;53180;51.344;6.152;2022-09-13T10:55:27;24.90;65.30
33271;DHT22;53180;51.344;6.152;2022-09-13T10:58:16;24.80;64.90
33271;DHT22;53180;51.344;6.152;2022-09-13T11:01:09;24.80;65.00
33271;DHT22;53180;51.344;6.152;2022-09-13T11:03:54;24.80;66.20
33271;DHT22;53180;51.344;6.152;2022-09-13T11:07:01;24.70;64.10
33271;DHT22;53180;51.344;6.152;2022-09-13T11:09:38;24.80;65.60
33271;DHT22;53180;51.344;6.152;2022-09-13T11:12:13;24.80;64.90
33271;DHT22;53180;51.344;6.152;2022-09-13T11:14:55;24.80;63.10
33271;DHT22;53180;51.344;6.152;2022-09-13T11:17:39;24.80;65.20
33271;DHT22;53180;51.344;6.152;2022-09-13T11:20:38;24.90;64.70
33271;DHT22;53180;51.344;6.152;2022-09-13T11:23:33;25.00;63.90
33271;DHT22;53180;51.344;6.152;2022-09-13T11:26:27;25.10;63.70
33271;DHT22;53180;51.344;6.152;2022-09-13T11:29:13;25.00;64.90
33271;DHT22;53180;51.344;6.152;2022-09-13T11:31:53;25.10;63.70
33271;DHT22;53180;51.344;6.152;2022-09-13T11:34:34;25.10;63.90
33271;DHT22;53180;51.344;6.152;2022-09-13T11:37:25;25.30;65.80
33271;DHT22;53180;51.344;6.152;2022-09-13T11:43:13;25.60;63.50
33271;DHT22;53180;51.344;6.152;2022-09-13T11:46:00;25.60;61.80
33271;DHT22;53180;51.344;6.152;2022-09-13T11:48:54;25.60;61.40
33271;DHT22;53180;51.344;6.152;2022-09-13T11:51:37;25.90;61.40
33271;DHT22;53180;51.344;6.152;2022-09-13T11:54:25;26.30;61.40
33271;DHT22;53180;51.344;6.152;2022-09-13T11:57:03;26.60;60.10
33271;DHT22;53180;51.344;6.152;2022-09-13T11:59:37;26.70;59.90
33271;DHT22;53180;51.344;6.152;2022-09-13T12:02:16;26.70;57.90
33271;DHT22;53180;51.344;6.152;2022-09-13T12:04:51;26.90;60.60
33271;DHT22;53180;51.344;6.152;2022-09-13T12:07:45;27.10;59.00
33271;DHT22;53180;51.344;6.152;2022-09-13T12:10:20;27.30;58.20
33271;DHT22;53180;51.344;6.152;2022-09-13T12:12:52;27.50;58.20
33271;DHT22;53180;51.344;6.152;2022-09-13T12:15:31;27.70;58.20
33271;DHT22;53180;51.344;6.152;2022-09-13T12:18:07;27.60;55.60
33271;DHT22;53180;51.344;6.152;2022-09-13T12:20:43;27.70;57.50
33271;DHT22;53180;51.344;6.152;2022-09-13T12:23:21;27.80;57.70
33271;DHT22;53180;51.344;6.152;2022-09-13T12:25:56;27.80;56.50
33271;DHT22;53180;51.344;6.152;2022-09-13T12:28:30;27.70;56.00
33271;DHT22;53180;51.344;6.152;2022-09-13T12:31:06;27.60;57.20
33271;DHT22;53180;51.344;6.152;2022-09-13T12:33:39;27.60;57.30
33271;DHT22;53180;51.344;6.152;2022-09-13T12:36:23;27.50;57.60
33271;DHT22;53180;51.344;6.152;2022-09-13T12:39:32;27.30;56.50
33271;DHT22;53180;51.344;6.152;2022-09-13T12:42:51;27.10;57.40
33271;DHT22;53180;51.344;6.152;2022-09-13T12:46:03;26.90;58.60
33271;DHT22;53180;51.344;6.152;2022-09-13T12:49:00;26.80;57.40
33271;DHT22;53180;51.344;6.152;2022-09-13T12:51:48;26.70;59.40
33271;DHT22;53180;51.344;6.152;2022-09-13T12:58:32;26.30;59.80
33271;DHT22;53180;51.344;6.152;2022-09-13T13:01:19;26.30;58.70
33271;DHT22;53180;51.344;6.152;2022-09-13T13:03:51;26.40;60.70
33271;DHT22;53180;51.344;6.152;2022-09-13T13:06:29;26.50;59.10
33271;DHT22;53180;51.344;6.152;2022-09-13T13:09:03;26.50;58.50
33271;DHT22;53180;51.344;6.152;2022-09-13T13:11:45;26.40;60.40
33271;DHT22;53180;51.344;6.152;2022-09-13T13:14:29;26.40;57.90
33271;DHT22;53180;51.344;6.152;2022-09-13T13:17:40;26.30;59.30
33271;DHT22;53180;51.344;6.152;2022-09-13T13:20:44;26.10;60.20
33271;DHT22;53180;51.344;6.152;2022-09-13T13:23:18;26.00;61.80
33271;DHT22;53180;51.344;6.152;2022-09-13T13:25:59;25.90;61.10
33271;DHT22;53180;51.344;6.152;2022-09-13T13:31:44;25.70;59.80
33271;DHT22;53180;51.344;6.152;2022-09-13T13:34:40;25.50;60.50
33271;DHT22;53180;51.344;6.152;2022-09-13T13:37:40;25.30;62.90
33271;DHT22;53180;51.344;6.152;2022-09-13T13:40:23;25.30;63.40
33271;DHT22;53180;51.344;6.152;2022-09-13T13:43:28;25.30;64.10
33271;DHT22;53180;51.344;6.152;2022-09-13T13:46:26;25.20;63.80
33271;DHT22;53180;51.344;6.152;2022-09-13T13:52:40;25.10;64.80
33271;DHT22;53180;51.344;6.152;2022-09-13T13:55:40;25.10;64.10
33271;DHT22;53180;51.344;6.152;2022-09-13T13:58:29;25.00;61.60
33271;DHT22;53180;51.344;6.152;2022-09-13T14:01:05;24.90;63.40
33271;DHT22;53180;51.344;6.152;2022-09-13T14:03:48;24.90;64.30
33271;DHT22;53180;51.344;6.152;2022-09-13T14:06:23;24.90;64.70
33271;DHT22;53180;51.344;6.152;2022-09-13T14:09:04;24.80;66.40
33271;DHT22;53180;51.344;6.152;2022-09-13T14:11:45;24.80;64.40
33271;DHT22;53180;51.344;6.152;2022-09-13T14:14:31;24.80;65.10
33271;DHT22;53180;51.344;6.152;2022-09-13T14:17:29;24.80;66.20
33271;DHT22;53180;51.344;6.152;2022-09-13T14:20:25;24.70;66.40
33271;DHT22;53180;51.344;6.152;2022-09-13T14:23:11;24.70;67.20
33271;DHT22;53180;51.344;6.152;2022-09-13T14:25:43;24.70;66.00
33271;DHT22;53180;51.344;6.152;2022-09-13T14:28:20;24.60;66.40
33271;DHT22;53180;51.344;6.152;2022-09-13T14:30:53;24.60;66.70
33271;DHT22;53180;51.344;6.152;2022-09-13T14:33:25;24.60;66.50
33271;DHT22;53180;51.344;6.152;2022-09-13T14:36:00;24.50;66.40
33271;DHT22;53180;51.344;6.152;2022-09-13T14:38:33;24.50;67.20
33271;DHT22;53180;51.344;6.152;2022-09-13T14:41:11;24.60;67.30
33271;DHT22;53180;51.344;6.152;2022-09-13T14:43:42;24.50;66.90
33271;DHT22;53180;51.344;6.152;2022-09-13T14:46:14;24.40;66.80
33271;DHT22;53180;51.344;6.152;2022-09-13T14:48:48;24.40;67.60
33271;DHT22;53180;51.344;6.152;2022-09-13T14:51:23;24.40;67.90
33271;DHT22;53180;51.344;6.152;2022-09-13T14:53:57;24.40;67.40
33271;DHT22;53180;51.344;6.152;2022-09-13T14:56:31;24.30;67.70
33271;DHT22;53180;51.344;6.152;2022-09-13T14:59:05;24.30;68.30
33271;DHT22;53180;51.344;6.152;2022-09-13T15:01:40;24.30;68.20
33271;DHT22;53180;51.344;6.152;2022-09-13T15:04:08;24.30;66.80
33271;DHT22;53180;51.344;6.152;2022-09-13T15:06:40;24.30;68.80
33271;DHT22;53180;51.344;6.152;2022-09-13T15:09:21;24.30;67.70
33271;DHT22;53180;51.344;6.152;2022-09-13T15:11:57;24.20;67.70
33271;DHT22;53180;51.344;6.152;2022-09-13T15:14:28;24.20;67.90
33271;DHT22;53180;51.344;6.152;2022-09-13T15:17:05;24.10;68.30
33271;DHT22;53180;51.344;6.152;2022-09-13T15:19:37;24.20;69.60
33271;DHT22;53180;51.344;6.152;2022-09-13T15:22:23;24.10;69.50
33271;DHT22;53180;51.344;6.152;2022-09-13T15:25:02;24.10;69.50
33271;DHT22;53180;51.344;6.152;2022-09-13T15:27:41;24.10;69.40
33271;DHT22;53180;51.344;6.152;2022-09-13T15:30:21;24.10;69.80
33271;DHT22;53180;51.344;6.152;2022-09-13T15:33:04;24.10;69.70
33271;DHT22;53180;51.344;6.152;2022-09-13T15:35:42;24.00;69.50
33271;DHT22;53180;51.344;6.152;2022-09-13T15:38:17;24.00;69.30
33271;DHT22;53180;51.344;6.152;2022-09-13T15:40:59;24.00;69.90
33271;DHT22;53180;51.344;6.152;2022-09-13T15:43:29;24.00;70.30
33271;DHT22;53180;51.344;6.152;2022-09-13T15:45:58;23.90;70.80
33271;DHT22;53180;51.344;6.152;2022-09-13T15:48:28;23.90;70.10
33271;DHT22;53180;51.344;6.152;2022-09-13T15:51:07;23.90;69.80
33271;DHT22;53180;51.344;6.152;2022-09-13T15:53:38;23.90;71.20
33271;DHT22;53180;51.344;6.152;2022-09-13T15:56:11;23.80;71.80
33271;DHT22;53180;51.344;6.152;2022-09-13T15:58:41;23.80;72.10
33271;DHT22;53180;51.344;6.152;2022-09-13T16:01:10;23.80;71.50
33271;DHT22;53180;51.344;6.152;2022-09-13T16:03:39;23.80;71.80
33271;DHT22;53180;51.344;6.152;2022-09-13T16:06:08;23.80;72.50
33271;DHT22;53180;51.344;6.152;2022-09-13T16:08:39;23.80;72.20
33271;DHT22;53180;51.344;6.152;2022-09-13T16:11:07;23.80;72.10
33271;DHT22;53180;51.344;6.152;2022-09-13T16:13:36;23.80;72.90
33271;DHT22;53180;51.344;6.152;2022-09-13T16:16:04;23.70;73.20
33271;DHT22;53180;51.344;6.152;2022-09-13T16:18:33;23.70;73.60
33271;DHT22;53180;51.344;6.152;2022-09-13T16:21:01;23.70;74.60
33271;DHT22;53180;51.344;6.152;2022-09-13T16:23:30;23.70;74.60
33271;DHT22;53180;51.344;6.152;2022-09-13T16:26:00;23.60;75.10
33271;DHT22;53180;51.344;6.152;2022-09-13T16:28:28;23.60;74.30
33271;DHT22;53180;51.344;6.152;2022-09-13T16:30:56;23.50;74.50
33271;DHT22;53180;51.344;6.152;2022-09-13T16:33:25;23.50;74.80
33271;DHT22;53180;51.344;6.152;2022-09-13T16:35:53;23.50;75.30
33271;DHT22;53180;51.344;6.152;2022-09-13T16:38:27;23.50;75.20
33271;DHT22;53180;51.344;6.152;2022-09-13T16:40:56;23.40;75.30
33271;DHT22;53180;51.344;6.152;2022-09-13T16:43:26;23.40;75.50
33271;DHT22;53180;51.344;6.152;2022-09-13T16:45:54;23.40;75.60